sensor_id;sensor_type;location;lat;lon;timestamp;P1;durP1;ratioP1;P2;durP2;ratioP2
31498;SDS011;18115;52.486;13.386;2023-02-01T00:01:48;43.75;;;5.63;;
31498;SDS011;18115;52.486;13.386;2023-02-01T00:04:14;48.17;;;3.63;;
31498;SDS011;18115;52.486;13.386;2023-02-01T00:06:40;37.47;;;3.22;;
31498;SDS011;18115;52.486;13.386;2023-02-01T00:09:05;29.73;;;3.35;;
31498;SDS011;18115;52.486;13.386;2023-02-01T00:11:31;34.08;;;3.35;;
31498;SDS011;18115;52.486;13.386;2023-02-01T00:13:57;42.63;;;3.13;;
31498;SDS011;18115;52.486;13.386;2023-02-01T00:16:24;26.90;;;3.92;;
31498;SDS011;18115;52.486;13.386;2023-02-01T00:18:52;43.03;;;3.15;;
31498;SDS011;18115;52.486;13.386;2023-02-01T00:21:25;37.63;;;2.72;;
31498;SDS011;18115;52.486;13.386;2023-02-01T00:23:52;45.15;;;3.35;;
31498;SDS011;18115;52.486;13.386;2023-02-01T00:26:19;22.52;;;2.60;;
31498;SDS011;18115;52.486;13.386;2023-02-01T00:28:49;39.15;;;4.30;;
31498;SDS011;18115;52.486;13.386;2023-02-01T00:31:15;30.33;;;2.88;;
31498;SDS011;18115;52.486;13.386;2023-02-01T00:33:41;31.20;;;2.50;;
31498;SDS011;18115;52.486;13.386;2023-02-01T00:36:07;34.40;;;3.15;;
31498;SDS011;18115;52.486;13.386;2023-02-01T00:38:36;26.60;;;3.92;;
31498;SDS011;18115;52.486;13.386;2023-02-01T00:41:03;35.63;;;4.10;;
31498;SDS011;18115;52.486;13.386;2023-02-01T00:43:30;32.72;;;2.40;;
31498;SDS011;18115;52.486;13.386;2023-02-01T00:45:57;31.20;;;2.35;;
31498;SDS011;18115;52.486;13.386;2023-02-01T00:48:23;31.33;;;2.30;;
31498;SDS011;18115;52.486;13.386;2023-02-01T00:50:49;28.38;;;2.63;;
31498;SDS011;18115;52.486;13.386;2023-02-01T00:53:14;28.67;;;1.73;;
31498;SDS011;18115;52.486;13.386;2023-02-01T00:55:40;28.40;;;2.97;;
31498;SDS011;18115;52.486;13.386;2023-02-01T00:58:09;37.53;;;3.55;;
31498;SDS011;18115;52.486;13.386;2023-02-01T01:00:34;22.17;;;2.80;;
31498;SDS011;18115;52.486;13.386;2023-02-01T01:03:00;8.93;;;1.60;;
31498;SDS011;18115;52.486;13.386;2023-02-01T01:05:26;23.90;;;2.10;;
31498;SDS011;18115;52.486;13.386;2023-02-01T01:07:52;26.08;;;2.67;;
31498;SDS011;18115;52.486;13.386;2023-02-01T01:10:18;19.60;;;2.15;;
31498;SDS011;18115;52.486;13.386;2023-02-01T01:12:44;20.77;;;2.10;;
31498;SDS011;18115;52.486;13.386;2023-02-01T01:15:10;16.40;;;1.88;;
31498;SDS011;18115;52.486;13.386;2023-02-01T01:17:35;16.85;;;3.17;;
31498;SDS011;18115;52.486;13.386;2023-02-01T01:20:01;26.10;;;1.92;;
31498;SDS011;18115;52.486;13.386;2023-02-01T01:22:28;19.02;;;2.00;;
31498;SDS011;18115;52.486;13.386;2023-02-01T01:24:54;19.75;;;3.67;;
31498;SDS011;18115;52.486;13.386;2023-02-01T01:27:19;20.38;;;2.15;;
31498;SDS011;18115;52.486;13.386;2023-02-01T01:29:48;29.80;;;2.65;;
31498;SDS011;18115;52.486;13.386;2023-02-01T01:32:15;18.83;;;2.22;;
31498;SDS011;18115;52.486;13.386;2023-02-01T01:34:40;27.17;;;2.38;;
31498;SDS011;18115;52.486;13.386;2023-02-01T01:37:06;21.70;;;3.28;;
31498;SDS011;18115;52.486;13.386;2023-02-01T01:39:32;20.98;;;2.38;;
31498;SDS011;18115;52.486;13.386;2023-02-01T01:41:57;25.55;;;2.63;;
31498;SDS011;18115;52.486;13.386;2023-02-01T01:47:20;24.27;;;2.22;;
31498;SDS011;18115;52.486;13.386;2023-02-01T01:49:45;25.70;;;2.75;;
31498;SDS011;18115;52.486;13.386;2023-02-01T01:52:11;29.05;;;2.50;;
31498;SDS011;18115;52.486;13.386;2023-02-01T01:54:38;23.33;;;2.63;;
31498;SDS011;18115;52.486;13.386;2023-02-01T01:57:14;44.58;;;5.18;;
31498;SDS011;18115;52.486;13.386;2023-02-01T01:59:46;28.42;;;2.40;;
31498;SDS011;18115;52.486;13.386;2023-02-01T02:02:20;13.57;;;1.92;;
31498;SDS011;18115;52.486;13.386;2023-02-01T02:04:45;31.30;;;2.20;;
31498;SDS011;18115;52.486;13.386;2023-02-01T02:07:20;31.85;;;3.17;;
31498;SDS011;18115;52.486;13.386;2023-02-01T02:09:49;34.30;;;3.03;;
31498;SDS011;18115;52.486;13.386;2023-02-01T02:12:15;38.88;;;4.22;;
31498;SDS011;18115;52.486;13.386;2023-02-01T02:14:40;24.90;;;2.15;;
31498;SDS011;18115;52.486;13.386;2023-02-01T02:27:37;23.23;;;2.72;;
31498;SDS011;18115;52.486;13.386;2023-02-01T02:43:21;25.33;;;2.13;;
31498;SDS011;18115;52.486;13.386;2023-02-01T02:46:30;19.23;;;2.38;;
31498;SDS011;18115;52.486;13.386;2023-02-01T02:54:36;28.13;;;2.50;;
31498;SDS011;18115;52.486;13.386;2023-02-01T02:57:12;40.38;;;3.78;;
31498;SDS011;18115;52.486;13.386;2023-02-01T03:00:19;27.00;;;2.78;;
31498;SDS011;18115;52.486;13.386;2023-02-01T03:05:58;27.60;;;2.47;;
31498;SDS011;18115;52.486;13.386;2023-02-01T03:08:28;42.78;;;3.83;;
31498;SDS011;18115;52.486;13.386;2023-02-01T03:11:06;26.80;;;2.25;;
31498;SDS011;18115;52.486;13.386;2023-02-01T03:21:32;24.25;;;2.58;;
31498;SDS011;18115;52.486;13.386;2023-02-01T03:24:12;28.42;;;2.13;;
31498;SDS011;18115;52.486;13.386;2023-02-01T03:26:47;38.40;;;3.67;;
31498;SDS011;18115;52.486;13.386;2023-02-01T03:29:18;31.42;;;2.88;;
31498;SDS011;18115;52.486;13.386;2023-02-01T03:31:50;37.17;;;3.42;;
31498;SDS011;18115;52.486;13.386;2023-02-01T03:34:16;37.50;;;3.42;;
31498;SDS011;18115;52.486;13.386;2023-02-01T03:36:50;41.75;;;4.80;;
31498;SDS011;18115;52.486;13.386;2023-02-01T03:42:01;35.25;;;3.10;;
31498;SDS011;18115;52.486;13.386;2023-02-01T03:44:31;20.08;;;2.10;;
31498;SDS011;18115;52.486;13.386;2023-02-01T03:47:10;27.48;;;2.97;;
31498;SDS011;18115;52.486;13.386;2023-02-01T03:49:47;21.65;;;3.20;;
31498;SDS011;18115;52.486;13.386;2023-02-01T03:52:22;46.53;;;3.47;;
31498;SDS011;18115;52.486;13.386;2023-02-01T03:54:52;29.67;;;5.05;;
31498;SDS011;18115;52.486;13.386;2023-02-01T03:57:20;26.45;;;2.92;;
31498;SDS011;18115;52.486;13.386;2023-02-01T03:59:50;34.50;;;3.50;;
31498;SDS011;18115;52.486;13.386;2023-02-01T04:02:16;32.35;;;3.40;;
31498;SDS011;18115;52.486;13.386;2023-02-01T04:04:41;32.33;;;3.20;;
31498;SDS011;18115;52.486;13.386;2023-02-01T04:07:07;32.65;;;3.20;;
31498;SDS011;18115;52.486;13.386;2023-02-01T04:09:32;28.42;;;3.40;;
31498;SDS011;18115;52.486;13.386;2023-02-01T04:11:58;37.88;;;3.63;;
31498;SDS011;18115;52.486;13.386;2023-02-01T04:14:24;46.97;;;3.95;;
31498;SDS011;18115;52.486;13.386;2023-02-01T04:16:49;33.80;;;4.45;;
31498;SDS011;18115;52.486;13.386;2023-02-01T04:19:15;34.50;;;2.72;;
31498;SDS011;18115;52.486;13.386;2023-02-01T04:21:41;32.20;;;2.78;;
31498;SDS011;18115;52.486;13.386;2023-02-01T04:24:06;29.42;;;4.22;;
31498;SDS011;18115;52.486;13.386;2023-02-01T04:26:33;27.67;;;2.67;;
31498;SDS011;18115;52.486;13.386;2023-02-01T04:28:59;22.52;;;3.20;;
31498;SDS011;18115;52.486;13.386;2023-02-01T04:31:24;43.17;;;3.08;;
31498;SDS011;18115;52.486;13.386;2023-02-01T04:33:53;33.45;;;3.45;;
31498;SDS011;18115;52.486;13.386;2023-02-01T04:36:20;38.97;;;3.17;;
31498;SDS011;18115;52.486;13.386;2023-02-01T04:38:47;33.15;;;2.92;;
31498;SDS011;18115;52.486;13.386;2023-02-01T04:41:13;33.88;;;3.30;;
31498;SDS011;18115;52.486;13.386;2023-02-01T04:43:40;19.73;;;1.90;;
31498;SDS011;18115;52.486;13.386;2023-02-01T04:46:06;34.85;;;3.78;;
31498;SDS011;18115;52.486;13.386;2023-02-01T04:48:31;25.92;;;3.58;;
31498;SDS011;18115;52.486;13.386;2023-02-01T04:50:57;24.17;;;2.38;;
31498;SDS011;18115;52.486;13.386;2023-02-01T04:53:23;32.05;;;2.60;;
31498;SDS011;18115;52.486;13.386;2023-02-01T04:55:49;30.05;;;3.55;;
31498;SDS011;18115;52.486;13.386;2023-02-01T04:58:15;35.15;;;3.55;;
31498;SDS011;18115;52.486;13.386;2023-02-01T05:00:41;28.00;;;2.90;;
31498;SDS011;18115;52.486;13.386;2023-02-01T05:03:06;31.52;;;3.83;;
31498;SDS011;18115;52.486;13.386;2023-02-01T05:05:32;43.28;;;4.25;;
31498;SDS011;18115;52.486;13.386;2023-02-01T05:07:58;31.75;;;3.15;;
31498;SDS011;18115;52.486;13.386;2023-02-01T05:10:23;23.50;;;2.67;;
31498;SDS011;18115;52.486;13.386;2023-02-01T05:12:49;26.42;;;2.70;;
31498;SDS011;18115;52.486;13.386;2023-02-01T05:15:33;27.92;;;2.72;;
31498;SDS011;18115;52.486;13.386;2023-02-01T05:17:58;25.75;;;3.00;;
31498;SDS011;18115;52.486;13.386;2023-02-01T05:20:24;28.38;;;2.75;;
31498;SDS011;18115;52.486;13.386;2023-02-01T05:22:50;21.50;;;2.25;;
31498;SDS011;18115;52.486;13.386;2023-02-01T05:25:16;37.15;;;3.35;;
31498;SDS011;18115;52.486;13.386;2023-02-01T05:27:41;32.30;;;3.40;;
31498;SDS011;18115;52.486;13.386;2023-02-01T05:30:07;22.83;;;2.83;;
31498;SDS011;18115;52.486;13.386;2023-02-01T05:32:34;35.25;;;3.20;;
31498;SDS011;18115;52.486;13.386;2023-02-01T05:34:59;21.95;;;3.60;;
31498;SDS011;18115;52.486;13.386;2023-02-01T05:37:25;29.58;;;2.90;;
31498;SDS011;18115;52.486;13.386;2023-02-01T05:39:51;28.38;;;3.85;;
31498;SDS011;18115;52.486;13.386;2023-02-01T05:42:17;25.17;;;2.47;;
31498;SDS011;18115;52.486;13.386;2023-02-01T05:44:42;29.13;;;2.67;;
31498;SDS011;18115;52.486;13.386;2023-02-01T05:47:08;20.67;;;3.85;;
31498;SDS011;18115;52.486;13.386;2023-02-01T05:49:34;23.42;;;2.35;;
31498;SDS011;18115;52.486;13.386;2023-02-01T05:52:00;24.83;;;3.53;;
31498;SDS011;18115;52.486;13.386;2023-02-01T05:54:26;31.33;;;3.75;;
31498;SDS011;18115;52.486;13.386;2023-02-01T05:56:51;24.65;;;2.63;;
31498;SDS011;18115;52.486;13.386;2023-02-01T05:59:17;28.00;;;3.42;;
31498;SDS011;18115;52.486;13.386;2023-02-01T06:01:42;36.88;;;3.45;;
31498;SDS011;18115;52.486;13.386;2023-02-01T06:04:08;36.47;;;2.88;;
31498;SDS011;18115;52.486;13.386;2023-02-01T06:06:34;38.83;;;3.05;;
31498;SDS011;18115;52.486;13.386;2023-02-01T06:09:01;29.35;;;3.08;;
31498;SDS011;18115;52.486;13.386;2023-02-01T06:11:27;28.35;;;3.58;;
31498;SDS011;18115;52.486;13.386;2023-02-01T06:13:53;35.53;;;2.92;;
31498;SDS011;18115;52.486;13.386;2023-02-01T06:16:20;26.10;;;3.17;;
31498;SDS011;18115;52.486;13.386;2023-02-01T06:18:46;31.88;;;3.13;;
31498;SDS011;18115;52.486;13.386;2023-02-01T06:21:12;32.28;;;4.28;;
31498;SDS011;18115;52.486;13.386;2023-02-01T06:23:39;17.77;;;3.63;;
31498;SDS011;18115;52.486;13.386;2023-02-01T06:26:06;42.28;;;6.57;;
31498;SDS011;18115;52.486;13.386;2023-02-01T06:28:34;46.58;;;3.95;;
31498;SDS011;18115;52.486;13.386;2023-02-01T06:31:04;32.78;;;3.75;;
31498;SDS011;18115;52.486;13.386;2023-02-01T06:33:31;29.33;;;4.63;;
31498;SDS011;18115;52.486;13.386;2023-02-01T06:35:59;46.60;;;3.50;;
31498;SDS011;18115;52.486;13.386;2023-02-01T06:38:26;18.58;;;2.92;;
31498;SDS011;18115;52.486;13.386;2023-02-01T06:40:52;41.80;;;4.35;;
31498;SDS011;18115;52.486;13.386;2023-02-01T06:43:19;35.08;;;3.90;;
31498;SDS011;18115;52.486;13.386;2023-02-01T06:45:45;26.10;;;3.00;;
31498;SDS011;18115;52.486;13.386;2023-02-01T06:48:11;32.88;;;3.15;;
31498;SDS011;18115;52.486;13.386;2023-02-01T06:50:37;32.03;;;3.60;;
31498;SDS011;18115;52.486;13.386;2023-02-01T06:53:02;23.60;;;2.97;;
31498;SDS011;18115;52.486;13.386;2023-02-01T06:55:28;34.15;;;3.67;;
31498;SDS011;18115;52.486;13.386;2023-02-01T06:57:54;51.67;;;4.10;;
31498;SDS011;18115;52.486;13.386;2023-02-01T07:00:22;29.95;;;4.95;;
31498;SDS011;18115;52.486;13.386;2023-02-01T07:02:48;25.88;;;4.25;;
31498;SDS011;18115;52.486;13.386;2023-02-01T07:05:14;31.05;;;3.55;;
31498;SDS011;18115;52.486;13.386;2023-02-01T07:07:40;31.08;;;3.40;;
31498;SDS011;18115;52.486;13.386;2023-02-01T07:10:05;24.85;;;3.47;;
31498;SDS011;18115;52.486;13.386;2023-02-01T07:12:31;38.95;;;6.70;;
31498;SDS011;18115;52.486;13.386;2023-02-01T07:14:57;27.33;;;3.70;;
31498;SDS011;18115;52.486;13.386;2023-02-01T07:17:23;33.72;;;3.63;;
31498;SDS011;18115;52.486;13.386;2023-02-01T07:19:48;30.02;;;3.83;;
31498;SDS011;18115;52.486;13.386;2023-02-01T07:22:17;22.10;;;3.40;;
31498;SDS011;18115;52.486;13.386;2023-02-01T07:24:43;25.42;;;2.80;;
31498;SDS011;18115;52.486;13.386;2023-02-01T07:27:09;14.57;;;2.60;;
31498;SDS011;18115;52.486;13.386;2023-02-01T07:29:34;27.30;;;3.33;;
31498;SDS011;18115;52.486;13.386;2023-02-01T07:32:00;34.05;;;2.83;;
31498;SDS011;18115;52.486;13.386;2023-02-01T07:34:27;32.13;;;3.67;;
31498;SDS011;18115;52.486;13.386;2023-02-01T07:36:53;36.67;;;3.45;;
31498;SDS011;18115;52.486;13.386;2023-02-01T07:39:19;34.78;;;3.58;;
31498;SDS011;18115;52.486;13.386;2023-02-01T07:41:45;31.30;;;3.25;;
31498;SDS011;18115;52.486;13.386;2023-02-01T07:44:10;36.90;;;3.53;;
31498;SDS011;18115;52.486;13.386;2023-02-01T07:46:36;23.58;;;3.42;;
31498;SDS011;18115;52.486;13.386;2023-02-01T07:49:03;27.23;;;3.35;;
31498;SDS011;18115;52.486;13.386;2023-02-01T07:51:29;27.80;;;3.38;;
31498;SDS011;18115;52.486;13.386;2023-02-01T07:53:54;26.60;;;3.35;;
31498;SDS011;18115;52.486;13.386;2023-02-01T07:56:20;30.30;;;4.00;;
31498;SDS011;18115;52.486;13.386;2023-02-01T07:58:51;21.38;;;3.20;;
31498;SDS011;18115;52.486;13.386;2023-02-01T08:01:24;33.90;;;5.97;;
31498;SDS011;18115;52.486;13.386;2023-02-01T08:03:58;21.55;;;3.83;;
31498;SDS011;18115;52.486;13.386;2023-02-01T08:06:27;17.60;;;3.17;;
31498;SDS011;18115;52.486;13.386;2023-02-01T08:08:55;29.52;;;3.75;;
31498;SDS011;18115;52.486;13.386;2023-02-01T08:11:22;21.67;;;2.90;;
31498;SDS011;18115;52.486;13.386;2023-02-01T08:13:49;19.98;;;3.60;;
31498;SDS011;18115;52.486;13.386;2023-02-01T08:16:15;26.73;;;3.10;;
31498;SDS011;18115;52.486;13.386;2023-02-01T08:18:43;25.48;;;4.13;;
31498;SDS011;18115;52.486;13.386;2023-02-01T08:23:38;22.38;;;3.22;;
31498;SDS011;18115;52.486;13.386;2023-02-01T08:26:06;23.85;;;4.10;;
31498;SDS011;18115;52.486;13.386;2023-02-01T08:28:32;27.55;;;3.72;;
31498;SDS011;18115;52.486;13.386;2023-02-01T08:30:57;12.48;;;2.72;;
31498;SDS011;18115;52.486;13.386;2023-02-01T08:33:24;15.48;;;3.50;;
31498;SDS011;18115;52.486;13.386;2023-02-01T08:35:50;22.95;;;4.45;;
31498;SDS011;18115;52.486;13.386;2023-02-01T08:38:15;24.13;;;4.00;;
31498;SDS011;18115;52.486;13.386;2023-02-01T08:40:41;30.00;;;4.45;;
31498;SDS011;18115;52.486;13.386;2023-02-01T08:43:07;30.40;;;5.82;;
31498;SDS011;18115;52.486;13.386;2023-02-01T08:45:32;21.42;;;3.70;;
31498;SDS011;18115;52.486;13.386;2023-02-01T08:47:58;28.65;;;5.57;;
31498;SDS011;18115;52.486;13.386;2023-02-01T08:50:24;31.17;;;5.50;;
31498;SDS011;18115;52.486;13.386;2023-02-01T08:52:50;24.55;;;3.45;;
31498;SDS011;18115;52.486;13.386;2023-02-01T08:55:16;22.40;;;5.63;;
31498;SDS011;18115;52.486;13.386;2023-02-01T08:57:42;30.27;;;5.07;;
31498;SDS011;18115;52.486;13.386;2023-02-01T09:00:09;24.10;;;4.55;;
31498;SDS011;18115;52.486;13.386;2023-02-01T09:02:37;21.17;;;3.70;;
31498;SDS011;18115;52.486;13.386;2023-02-01T09:05:03;17.33;;;3.22;;
31498;SDS011;18115;52.486;13.386;2023-02-01T09:07:30;11.93;;;2.50;;
31498;SDS011;18115;52.486;13.386;2023-02-01T09:09:56;15.90;;;2.58;;
31498;SDS011;18115;52.486;13.386;2023-02-01T09:12:25;10.25;;;2.30;;
31498;SDS011;18115;52.486;13.386;2023-02-01T09:14:58;12.98;;;2.65;;
31498;SDS011;18115;52.486;13.386;2023-02-01T09:17:25;7.43;;;2.20;;
31498;SDS011;18115;52.486;13.386;2023-02-01T09:19:51;15.25;;;2.75;;
31498;SDS011;18115;52.486;13.386;2023-02-01T09:22:17;11.98;;;2.25;;
31498;SDS011;18115;52.486;13.386;2023-02-01T09:24:43;4.05;;;1.45;;
31498;SDS011;18115;52.486;13.386;2023-02-01T09:27:08;13.13;;;2.25;;
31498;SDS011;18115;52.486;13.386;2023-02-01T09:29:34;12.13;;;1.90;;
31498;SDS011;18115;52.486;13.386;2023-02-01T09:32:00;9.93;;;1.95;;
31498;SDS011;18115;52.486;13.386;2023-02-01T09:34:26;11.00;;;1.65;;
31498;SDS011;18115;52.486;13.386;2023-02-01T09:36:51;8.13;;;1.60;;
31498;SDS011;18115;52.486;13.386;2023-02-01T09:39:20;9.98;;;1.05;;
31498;SDS011;18115;52.486;13.386;2023-02-01T09:47:13;4.68;;;1.13;;
31498;SDS011;18115;52.486;13.386;2023-02-01T09:50:26;1.58;;;0.70;;
31498;SDS011;18115;52.486;13.386;2023-02-01T09:52:48;10.47;;;1.00;;
31498;SDS011;18115;52.486;13.386;2023-02-01T09:58:31;6.22;;;0.90;;
31498;SDS011;18115;52.486;13.386;2023-02-01T10:01:11;9.55;;;1.05;;
31498;SDS011;18115;52.486;13.386;2023-02-01T10:03:49;3.15;;;0.70;;
31498;SDS011;18115;52.486;13.386;2023-02-01T10:17:12;9.32;;;1.20;;
31498;SDS011;18115;52.486;13.386;2023-02-01T10:22:50;6.80;;;0.93;;
31498;SDS011;18115;52.486;13.386;2023-02-01T10:28:24;6.13;;;1.00;;
31498;SDS011;18115;52.486;13.386;2023-02-01T10:30:51;6.45;;;0.82;;
31498;SDS011;18115;52.486;13.386;2023-02-01T10:33:25;10.25;;;1.52;;
31498;SDS011;18115;52.486;13.386;2023-02-01T10:36:08;7.05;;;1.10;;
31498;SDS011;18115;52.486;13.386;2023-02-01T10:38:48;3.58;;;0.88;;
31498;SDS011;18115;52.486;13.386;2023-02-01T10:43:42;12.98;;;1.13;;
31498;SDS011;18115;52.486;13.386;2023-02-01T10:46:10;8.93;;;1.75;;
31498;SDS011;18115;52.486;13.386;2023-02-01T10:48:37;7.43;;;1.00;;
31498;SDS011;18115;52.486;13.386;2023-02-01T10:51:39;6.72;;;1.00;;
31498;SDS011;18115;52.486;13.386;2023-02-01T10:54:31;3.92;;;1.10;;
31498;SDS011;18115;52.486;13.386;2023-02-01T10:56:59;13.50;;;1.35;;
31498;SDS011;18115;52.486;13.386;2023-02-01T10:59:25;15.73;;;1.25;;
31498;SDS011;18115;52.486;13.386;2023-02-01T11:02:00;5.20;;;1.10;;
31498;SDS011;18115;52.486;13.386;2023-02-01T11:04:32;19.20;;;1.02;;
31498;SDS011;18115;52.486;13.386;2023-02-01T11:07:05;10.32;;;1.25;;
31498;SDS011;18115;52.486;13.386;2023-02-01T11:09:35;10.98;;;2.47;;
31498;SDS011;18115;52.486;13.386;2023-02-01T11:12:05;19.27;;;1.48;;
31498;SDS011;18115;52.486;13.386;2023-02-01T11:14:45;5.90;;;1.33;;
31498;SDS011;18115;52.486;13.386;2023-02-01T11:23:05;15.77;;;1.10;;
31498;SDS011;18115;52.486;13.386;2023-02-01T11:25:47;11.93;;;1.25;;
31498;SDS011;18115;52.486;13.386;2023-02-01T11:28:19;14.60;;;2.47;;
31498;SDS011;18115;52.486;13.386;2023-02-01T11:30:49;8.57;;;1.40;;
31498;SDS011;18115;52.486;13.386;2023-02-01T11:33:18;7.03;;;1.42;;
31498;SDS011;18115;52.486;13.386;2023-02-01T11:35:45;13.38;;;1.70;;
31498;SDS011;18115;52.486;13.386;2023-02-01T11:38:32;17.92;;;2.30;;
31498;SDS011;18115;52.486;13.386;2023-02-01T11:41:14;13.68;;;1.40;;
31498;SDS011;18115;52.486;13.386;2023-02-01T11:43:51;19.35;;;1.70;;
31498;SDS011;18115;52.486;13.386;2023-02-01T11:46:19;19.30;;;1.70;;
31498;SDS011;18115;52.486;13.386;2023-02-01T11:48:50;9.23;;;1.65;;
31498;SDS011;18115;52.486;13.386;2023-02-01T11:54:20;12.27;;;1.77;;
31498;SDS011;18115;52.486;13.386;2023-02-01T11:57:25;11.05;;;1.48;;
31498;SDS011;18115;52.486;13.386;2023-02-01T12:03:05;12.38;;;1.30;;
31498;SDS011;18115;52.486;13.386;2023-02-01T12:20:16;8.38;;;1.20;;
31498;SDS011;18115;52.486;13.386;2023-02-01T12:45:49;12.38;;;1.65;;
31498;SDS011;18115;52.486;13.386;2023-02-01T12:51:22;13.27;;;1.45;;
31498;SDS011;18115;52.486;13.386;2023-02-01T12:53:56;7.32;;;1.75;;
31498;SDS011;18115;52.486;13.386;2023-02-01T12:59:12;12.98;;;2.03;;
31498;SDS011;18115;52.486;13.386;2023-02-01T13:01:56;12.13;;;1.42;;
31498;SDS011;18115;52.486;13.386;2023-02-01T13:04:36;13.60;;;1.20;;
31498;SDS011;18115;52.486;13.386;2023-02-01T13:07:11;10.82;;;1.75;;
31498;SDS011;18115;52.486;13.386;2023-02-01T13:09:43;8.70;;;1.83;;
31498;SDS011;18115;52.486;13.386;2023-02-01T13:12:23;10.43;;;1.67;;
31498;SDS011;18115;52.486;13.386;2023-02-01T13:15:00;12.98;;;1.27;;
31498;SDS011;18115;52.486;13.386;2023-02-01T13:17:46;15.88;;;1.58;;
31498;SDS011;18115;52.486;13.386;2023-02-01T13:22:57;6.72;;;1.25;;
31498;SDS011;18115;52.486;13.386;2023-02-01T13:28:26;8.27;;;1.60;;
31498;SDS011;18115;52.486;13.386;2023-02-01T13:39:19;8.07;;;1.20;;
31498;SDS011;18115;52.486;13.386;2023-02-01T13:44:52;11.32;;;1.27;;
31498;SDS011;18115;52.486;13.386;2023-02-01T13:47:29;10.18;;;1.17;;
31498;SDS011;18115;52.486;13.386;2023-02-01T13:50:11;10.98;;;1.23;;
31498;SDS011;18115;52.486;13.386;2023-02-01T13:52:43;8.25;;;1.50;;
31498;SDS011;18115;52.486;13.386;2023-02-01T13:57:45;8.90;;;1.33;;
31498;SDS011;18115;52.486;13.386;2023-02-01T14:03:12;12.75;;;1.20;;
31498;SDS011;18115;52.486;13.386;2023-02-01T14:10:57;14.63;;;1.90;;
31498;SDS011;18115;52.486;13.386;2023-02-01T14:13:36;19.55;;;1.92;;
31498;SDS011;18115;52.486;13.386;2023-02-01T14:23:41;8.60;;;1.90;;
31498;SDS011;18115;52.486;13.386;2023-02-01T14:29:03;22.70;;;2.88;;
31498;SDS011;18115;52.486;13.386;2023-02-01T14:44:42;14.77;;;1.90;;
31498;SDS011;18115;52.486;13.386;2023-02-01T14:47:09;17.83;;;3.08;;
31498;SDS011;18115;52.486;13.386;2023-02-01T14:49:49;12.25;;;2.85;;
31498;SDS011;18115;52.486;13.386;2023-02-01T14:52:19;16.60;;;2.20;;
31498;SDS011;18115;52.486;13.386;2023-02-01T14:54:49;20.77;;;2.00;;
31498;SDS011;18115;52.486;13.386;2023-02-01T14:57:19;20.40;;;1.95;;
31498;SDS011;18115;52.486;13.386;2023-02-01T14:59:48;8.65;;;1.25;;
31498;SDS011;18115;52.486;13.386;2023-02-01T15:02:25;22.15;;;3.90;;
31498;SDS011;18115;52.486;13.386;2023-02-01T15:04:55;16.25;;;1.80;;
31498;SDS011;18115;52.486;13.386;2023-02-01T15:07:22;7.75;;;1.48;;
31498;SDS011;18115;52.486;13.386;2023-02-01T15:09:50;7.15;;;1.00;;
31498;SDS011;18115;52.486;13.386;2023-02-01T15:12:18;8.10;;;0.90;;
31498;SDS011;18115;52.486;13.386;2023-02-01T15:15:11;6.00;;;0.98;;
31498;SDS011;18115;52.486;13.386;2023-02-01T15:17:39;7.55;;;1.00;;
31498;SDS011;18115;52.486;13.386;2023-02-01T15:22:39;5.53;;;0.90;;
31498;SDS011;18115;52.486;13.386;2023-02-01T15:25:05;5.90;;;1.17;;
31498;SDS011;18115;52.486;13.386;2023-02-01T15:27:43;4.63;;;1.00;;
31498;SDS011;18115;52.486;13.386;2023-02-01T15:30:16;12.38;;;0.85;;
31498;SDS011;18115;52.486;13.386;2023-02-01T15:32:43;3.38;;;1.02;;
31498;SDS011;18115;52.486;13.386;2023-02-01T15:41:22;5.70;;;0.93;;
31498;SDS011;18115;52.486;13.386;2023-02-01T15:46:13;5.80;;;1.50;;
31498;SDS011;18115;52.486;13.386;2023-02-01T15:48:52;6.53;;;1.58;;
31498;SDS011;18115;52.486;13.386;2023-02-01T15:51:20;9.32;;;1.25;;
31498;SDS011;18115;52.486;13.386;2023-02-01T15:53:48;4.65;;;1.35;;
31498;SDS011;18115;52.486;13.386;2023-02-01T15:56:21;8.10;;;1.33;;
31498;SDS011;18115;52.486;13.386;2023-02-01T15:58:50;4.78;;;1.20;;
31498;SDS011;18115;52.486;13.386;2023-02-01T16:01:22;2.70;;;1.50;;
31498;SDS011;18115;52.486;13.386;2023-02-01T16:03:49;4.45;;;1.73;;
31498;SDS011;18115;52.486;13.386;2023-02-01T16:06:27;3.65;;;2.08;;
31498;SDS011;18115;52.486;13.386;2023-02-01T16:09:16;7.60;;;1.92;;
31498;SDS011;18115;52.486;13.386;2023-02-01T16:11:58;4.65;;;1.30;;
31498;SDS011;18115;52.486;13.386;2023-02-01T16:14:25;3.08;;;1.10;;
31498;SDS011;18115;52.486;13.386;2023-02-01T16:16:51;2.80;;;1.13;;
31498;SDS011;18115;52.486;13.386;2023-02-01T16:19:19;4.03;;;1.00;;
31498;SDS011;18115;52.486;13.386;2023-02-01T16:21:44;3.00;;;0.70;;
31498;SDS011;18115;52.486;13.386;2023-02-01T16:24:11;1.40;;;0.75;;
31498;SDS011;18115;52.486;13.386;2023-02-01T16:26:37;1.63;;;0.85;;
31498;SDS011;18115;52.486;13.386;2023-02-01T16:29:03;0.75;;;0.50;;
31498;SDS011;18115;52.486;13.386;2023-02-01T16:31:31;1.80;;;0.68;;
31498;SDS011;18115;52.486;13.386;2023-02-01T16:33:59;4.38;;;0.93;;
31498;SDS011;18115;52.486;13.386;2023-02-01T16:36:25;1.63;;;0.80;;
31498;SDS011;18115;52.486;13.386;2023-02-01T16:38:53;2.40;;;0.80;;
31498;SDS011;18115;52.486;13.386;2023-02-01T16:41:20;1.83;;;0.47;;
31498;SDS011;18115;52.486;13.386;2023-02-01T16:43:50;0.95;;;0.57;;
31498;SDS011;18115;52.486;13.386;2023-02-01T16:46:18;1.52;;;0.70;;
31498;SDS011;18115;52.486;13.386;2023-02-01T16:48:51;2.20;;;0.32;;
31498;SDS011;18115;52.486;13.386;2023-02-01T16:51:19;0.63;;;0.20;;
31498;SDS011;18115;52.486;13.386;2023-02-01T16:53:46;0.40;;;0.30;;
31498;SDS011;18115;52.486;13.386;2023-02-01T16:56:16;0.98;;;0.40;;
31498;SDS011;18115;52.486;13.386;2023-02-01T16:59:04;1.83;;;0.60;;
31498;SDS011;18115;52.486;13.386;2023-02-01T17:01:30;1.13;;;0.60;;
31498;SDS011;18115;52.486;13.386;2023-02-01T17:03:56;4.18;;;0.90;;
31498;SDS011;18115;52.486;13.386;2023-02-01T17:06:22;3.42;;;1.13;;
31498;SDS011;18115;52.486;13.386;2023-02-01T17:08:50;1.25;;;0.60;;
31498;SDS011;18115;52.486;13.386;2023-02-01T17:11:20;7.32;;;1.13;;
31498;SDS011;18115;52.486;13.386;2023-02-01T17:13:46;3.25;;;0.80;;
31498;SDS011;18115;52.486;13.386;2023-02-01T17:16:20;5.10;;;0.88;;
31498;SDS011;18115;52.486;13.386;2023-02-01T17:21:19;4.95;;;1.08;;
31498;SDS011;18115;52.486;13.386;2023-02-01T17:23:45;16.27;;;1.85;;
31498;SDS011;18115;52.486;13.386;2023-02-01T17:26:11;7.85;;;1.40;;
31498;SDS011;18115;52.486;13.386;2023-02-01T17:28:37;5.30;;;1.02;;
31498;SDS011;18115;52.486;13.386;2023-02-01T17:31:02;4.75;;;2.10;;
31498;SDS011;18115;52.486;13.386;2023-02-01T17:33:30;12.90;;;1.35;;
31498;SDS011;18115;52.486;13.386;2023-02-01T17:35:59;6.53;;;1.65;;
31498;SDS011;18115;52.486;13.386;2023-02-01T17:38:26;19.63;;;1.40;;
31498;SDS011;18115;52.486;13.386;2023-02-01T17:40:52;9.68;;;1.52;;
31498;SDS011;18115;52.486;13.386;2023-02-01T17:43:20;9.45;;;1.20;;
31498;SDS011;18115;52.486;13.386;2023-02-01T17:46:00;11.60;;;1.40;;
31498;SDS011;18115;52.486;13.386;2023-02-01T17:48:36;9.88;;;1.48;;
31498;SDS011;18115;52.486;13.386;2023-02-01T17:51:02;12.27;;;1.77;;
31498;SDS011;18115;52.486;13.386;2023-02-01T17:53:28;12.55;;;3.60;;
31498;SDS011;18115;52.486;13.386;2023-02-01T17:55:54;8.50;;;1.17;;